sensor_id;sensor_type;location;lat;lon;timestamp;P1;durP1;ratioP1;P2;durP2;ratioP2
20567;SDS011;10442;49.932;11.592;2023-04-02T00:01:24;2.83;;;1.05;;
20567;SDS011;10442;49.932;11.592;2023-04-02T00:04:10;1.35;;;1.25;;
20567;SDS011;10442;49.932;11.592;2023-04-02T00:06:41;1.00;;;0.90;;
20567;SDS011;10442;49.932;11.592;2023-04-02T00:11:45;2.20;;;0.82;;
20567;SDS011;10442;49.932;11.592;2023-04-02T00:14:15;0.77;;;0.77;;
20567;SDS011;10442;49.932;11.592;2023-04-02T00:16:48;2.10;;;1.00;;
20567;SDS011;10442;49.932;11.592;2023-04-02T00:19:34;0.93;;;0.93;;
20567;SDS011;10442;49.932;11.592;2023-04-02T00:22:08;0.98;;;0.98;;
20567;SDS011;10442;49.932;11.592;2023-04-02T00:24:41;0.80;;;0.80;;
20567;SDS011;10442;49.932;11.592;2023-04-02T00:27:09;1.83;;;1.10;;
20567;SDS011;10442;49.932;11.592;2023-04-02T00:29:46;0.65;;;0.65;;
20567;SDS011;10442;49.932;11.592;2023-04-02T00:32:24;0.90;;;0.90;;
20567;SDS011;10442;49.932;11.592;2023-04-02T00:34:54;1.17;;;1.13;;
20567;SDS011;10442;49.932;11.592;2023-04-02T00:37:30;1.65;;;1.45;;
20567;SDS011;10442;49.932;11.592;2023-04-02T00:40:12;0.93;;;0.93;;
20567;SDS011;10442;49.932;11.592;2023-04-02T00:42:45;0.90;;;0.90;;
20567;SDS011;10442;49.932;11.592;2023-04-02T00:47:48;1.05;;;0.95;;
20567;SDS011;10442;49.932;11.592;2023-04-02T00:53:03;0.90;;;0.90;;
20567;SDS011;10442;49.932;11.592;2023-04-02T00:55:38;0.85;;;0.85;;
20567;SDS011;10442;49.932;11.592;2023-04-02T00:58:19;0.75;;;0.75;;
20567;SDS011;10442;49.932;11.592;2023-04-02T01:00:53;1.00;;;1.00;;
20567;SDS011;10442;49.932;11.592;2023-04-02T01:05:56;1.17;;;0.70;;
20567;SDS011;10442;49.932;11.592;2023-04-02T01:08:31;0.70;;;0.70;;
20567;SDS011;10442;49.932;11.592;2023-04-02T01:23:13;0.70;;;0.70;;
20567;SDS011;10442;49.932;11.592;2023-04-02T01:25:51;0.50;;;0.50;;
20567;SDS011;10442;49.932;11.592;2023-04-02T01:31:27;0.50;;;0.50;;
20567;SDS011;10442;49.932;11.592;2023-04-02T01:33:56;0.50;;;0.50;;
20567;SDS011;10442;49.932;11.592;2023-04-02T01:36:27;0.50;;;0.50;;
20567;SDS011;10442;49.932;11.592;2023-04-02T01:41:34;0.57;;;0.57;;
20567;SDS011;10442;49.932;11.592;2023-04-02T01:44:12;0.60;;;0.60;;
20567;SDS011;10442;49.932;11.592;2023-04-02T01:46:47;0.50;;;0.50;;
20567;SDS011;10442;49.932;11.592;2023-04-02T01:49:19;1.63;;;0.63;;
20567;SDS011;10442;49.932;11.592;2023-04-02T01:51:53;1.17;;;0.70;;
20567;SDS011;10442;49.932;11.592;2023-04-02T01:54:24;0.50;;;0.50;;
20567;SDS011;10442;49.932;11.592;2023-04-02T01:56:54;1.13;;;0.95;;
20567;SDS011;10442;49.932;11.592;2023-04-02T01:59:23;0.70;;;0.70;;
20567;SDS011;10442;49.932;11.592;2023-04-02T02:02:02;0.65;;;0.65;;
20567;SDS011;10442;49.932;11.592;2023-04-02T02:04:35;3.47;;;1.00;;
20567;SDS011;10442;49.932;11.592;2023-04-02T02:07:05;0.63;;;0.63;;
20567;SDS011;10442;49.932;11.592;2023-04-02T02:09:42;0.77;;;0.77;;
20567;SDS011;10442;49.932;11.592;2023-04-02T02:12:11;1.08;;;1.08;;
20567;SDS011;10442;49.932;11.592;2023-04-02T02:14:45;0.65;;;0.65;;
20567;SDS011;10442;49.932;11.592;2023-04-02T02:17:23;1.40;;;1.30;;
20567;SDS011;10442;49.932;11.592;2023-04-02T02:19:56;0.75;;;0.75;;
20567;SDS011;10442;49.932;11.592;2023-04-02T02:22:29;1.10;;;1.02;;
20567;SDS011;10442;49.932;11.592;2023-04-02T02:25:10;1.45;;;1.35;;
20567;SDS011;10442;49.932;11.592;2023-04-02T02:33:14;5.30;;;1.60;;
20567;SDS011;10442;49.932;11.592;2023-04-02T02:36:00;1.50;;;1.40;;
20567;SDS011;10442;49.932;11.592;2023-04-02T02:41:19;1.45;;;1.35;;
20567;SDS011;10442;49.932;11.592;2023-04-02T02:43:59;1.38;;;1.27;;
20567;SDS011;10442;49.932;11.592;2023-04-02T02:46:38;1.33;;;1.33;;
20567;SDS011;10442;49.932;11.592;2023-04-02T02:49:18;1.33;;;1.33;;
20567;SDS011;10442;49.932;11.592;2023-04-02T02:51:57;1.48;;;1.48;;
20567;SDS011;10442;49.932;11.592;2023-04-02T02:54:46;1.45;;;1.33;;
20567;SDS011;10442;49.932;11.592;2023-04-02T02:57:19;1.70;;;1.17;;
20567;SDS011;10442;49.932;11.592;2023-04-02T02:59:50;1.65;;;1.55;;
20567;SDS011;10442;49.932;11.592;2023-04-02T03:02:20;2.28;;;1.20;;
20567;SDS011;10442;49.932;11.592;2023-04-02T03:04:51;1.48;;;1.38;;
20567;SDS011;10442;49.932;11.592;2023-04-02T03:07:24;1.02;;;1.02;;
20567;SDS011;10442;49.932;11.592;2023-04-02T03:18:32;4.88;;;1.65;;
20567;SDS011;10442;49.932;11.592;2023-04-02T03:21:09;1.40;;;1.30;;
20567;SDS011;10442;49.932;11.592;2023-04-02T03:23:55;1.38;;;1.27;;
20567;SDS011;10442;49.932;11.592;2023-04-02T03:26:34;1.10;;;1.10;;
20567;SDS011;10442;49.932;11.592;2023-04-02T03:29:15;1.30;;;1.30;;
20567;SDS011;10442;49.932;11.592;2023-04-02T03:31:53;1.20;;;1.20;;
20567;SDS011;10442;49.932;11.592;2023-04-02T03:37:23;2.45;;;1.42;;
20567;SDS011;10442;49.932;11.592;2023-04-02T03:40:00;1.70;;;1.60;;
20567;SDS011;10442;49.932;11.592;2023-04-02T03:42:40;1.40;;;1.40;;
20567;SDS011;10442;49.932;11.592;2023-04-02T03:45:27;1.45;;;1.40;;
20567;SDS011;10442;49.932;11.592;2023-04-02T03:48:02;1.60;;;1.48;;
20567;SDS011;10442;49.932;11.592;2023-04-02T03:50:46;1.40;;;1.30;;
20567;SDS011;10442;49.932;11.592;2023-04-02T03:53:22;1.40;;;1.30;;
20567;SDS011;10442;49.932;11.592;2023-04-02T03:55:50;2.33;;;1.40;;
20567;SDS011;10442;49.932;11.592;2023-04-02T03:58:20;1.25;;;1.25;;
20567;SDS011;10442;49.932;11.592;2023-04-02T04:01:02;1.20;;;1.17;;
20567;SDS011;10442;49.932;11.592;2023-04-02T04:03:41;1.27;;;1.27;;
20567;SDS011;10442;49.932;11.592;2023-04-02T04:06:19;1.17;;;1.17;;
20567;SDS011;10442;49.932;11.592;2023-04-02T04:09:05;1.20;;;1.20;;
20567;SDS011;10442;49.932;11.592;2023-04-02T04:11:47;1.85;;;1.75;;
20567;SDS011;10442;49.932;11.592;2023-04-02T04:14:20;1.20;;;1.20;;
20567;SDS011;10442;49.932;11.592;2023-04-02T04:20:17;1.20;;;1.20;;
20567;SDS011;10442;49.932;11.592;2023-04-02T04:22:51;10.65;;;1.50;;
20567;SDS011;10442;49.932;11.592;2023-04-02T04:25:25;1.25;;;1.15;;
20567;SDS011;10442;49.932;11.592;2023-04-02T04:30:52;1.75;;;1.27;;
20567;SDS011;10442;49.932;11.592;2023-04-02T04:33:33;2.22;;;1.38;;
20567;SDS011;10442;49.932;11.592;2023-04-02T04:36:19;1.35;;;1.30;;
20567;SDS011;10442;49.932;11.592;2023-04-02T04:39:03;1.38;;;1.27;;
20567;SDS011;10442;49.932;11.592;2023-04-02T04:41:36;1.15;;;1.15;;
20567;SDS011;10442;49.932;11.592;2023-04-02T04:46:59;0.93;;;0.93;;
20567;SDS011;10442;49.932;11.592;2023-04-02T04:49:53;1.50;;;1.40;;
20567;SDS011;10442;49.932;11.592;2023-04-02T04:52:33;2.30;;;1.38;;
20567;SDS011;10442;49.932;11.592;2023-04-02T04:57:58;0.45;;;0.45;;
20567;SDS011;10442;49.932;11.592;2023-04-02T05:00:42;0.80;;;0.80;;
20567;SDS011;10442;49.932;11.592;2023-04-02T05:03:21;0.52;;;0.50;;
20567;SDS011;10442;49.932;11.592;2023-04-02T05:09:00;0.63;;;0.63;;
20567;SDS011;10442;49.932;11.592;2023-04-02T05:11:35;0.70;;;0.70;;
20567;SDS011;10442;49.932;11.592;2023-04-02T05:14:15;0.43;;;0.43;;
20567;SDS011;10442;49.932;11.592;2023-04-02T05:19:50;0.55;;;0.55;;
20567;SDS011;10442;49.932;11.592;2023-04-02T05:22:28;1.38;;;0.73;;
20567;SDS011;10442;49.932;11.592;2023-04-02T05:25:24;0.80;;;0.52;;
20567;SDS011;10442;49.932;11.592;2023-04-02T05:28:02;0.43;;;0.43;;
20567;SDS011;10442;49.932;11.592;2023-04-02T05:30:55;0.50;;;0.50;;
20567;SDS011;10442;49.932;11.592;2023-04-02T05:33:38;0.80;;;0.80;;
20567;SDS011;10442;49.932;11.592;2023-04-02T05:36:11;0.43;;;0.43;;
20567;SDS011;10442;49.932;11.592;2023-04-02T05:38:50;0.85;;;0.43;;
20567;SDS011;10442;49.932;11.592;2023-04-02T05:41:32;0.60;;;0.60;;
20567;SDS011;10442;49.932;11.592;2023-04-02T05:44:11;0.70;;;0.70;;
20567;SDS011;10442;49.932;11.592;2023-04-02T05:47:00;0.57;;;0.57;;
20567;SDS011;10442;49.932;11.592;2023-04-02T05:49:41;0.85;;;0.85;;
20567;SDS011;10442;49.932;11.592;2023-04-02T05:52:20;0.75;;;0.60;;
20567;SDS011;10442;49.932;11.592;2023-04-02T05:54:54;0.68;;;0.68;;
20567;SDS011;10442;49.932;11.592;2023-04-02T05:57:32;0.47;;;0.47;;
20567;SDS011;10442;49.932;11.592;2023-04-02T06:00:21;0.50;;;0.50;;
20567;SDS011;10442;49.932;11.592;2023-04-02T06:02:59;2.20;;;0.50;;
20567;SDS011;10442;49.932;11.592;2023-04-02T06:05:35;0.77;;;0.77;;
20567;SDS011;10442;49.932;11.592;2023-04-02T06:08:15;0.57;;;0.57;;
20567;SDS011;10442;49.932;11.592;2023-04-02T06:13:28;0.47;;;0.47;;
20567;SDS011;10442;49.932;11.592;2023-04-02T06:15:56;0.40;;;0.40;;
20567;SDS011;10442;49.932;11.592;2023-04-02T06:18:32;0.60;;;0.60;;
20567;SDS011;10442;49.932;11.592;2023-04-02T06:21:02;0.60;;;0.60;;
20567;SDS011;10442;49.932;11.592;2023-04-02T06:23:36;0.50;;;0.50;;
20567;SDS011;10442;49.932;11.592;2023-04-02T06:26:24;0.50;;;0.50;;
20567;SDS011;10442;49.932;11.592;2023-04-02T06:28:56;0.52;;;0.52;;
20567;SDS011;10442;49.932;11.592;2023-04-02T06:31:51;0.55;;;0.55;;
20567;SDS011;10442;49.932;11.592;2023-04-02T06:34:23;0.45;;;0.45;;
20567;SDS011;10442;49.932;11.592;2023-04-02T06:37:00;0.90;;;0.90;;
20567;SDS011;10442;49.932;11.592;2023-04-02T06:39:40;1.08;;;1.00;;
20567;SDS011;10442;49.932;11.592;2023-04-02T06:42:31;0.47;;;0.47;;
20567;SDS011;10442;49.932;11.592;2023-04-02T06:45:06;0.60;;;0.60;;
20567;SDS011;10442;49.932;11.592;2023-04-02T06:47:52;0.47;;;0.47;;
20567;SDS011;10442;49.932;11.592;2023-04-02T06:50:36;0.90;;;0.90;;
20567;SDS011;10442;49.932;11.592;2023-04-02T06:53:36;0.90;;;0.90;;
20567;SDS011;10442;49.932;11.592;2023-04-02T06:59:15;0.70;;;0.70;;
20567;SDS011;10442;49.932;11.592;2023-04-02T07:01:46;1.40;;;1.30;;
20567;SDS011;10442;49.932;11.592;2023-04-02T07:04:23;1.20;;;0.80;;
20567;SDS011;10442;49.932;11.592;2023-04-02T07:06:54;1.20;;;1.10;;
20567;SDS011;10442;49.932;11.592;2023-04-02T07:09:24;1.20;;;1.20;;
20567;SDS011;10442;49.932;11.592;2023-04-02T07:11:55;0.63;;;0.63;;
20567;SDS011;10442;49.932;11.592;2023-04-02T07:14:22;1.43;;;1.33;;
20567;SDS011;10442;49.932;11.592;2023-04-02T07:16:50;0.73;;;0.73;;
20567;SDS011;10442;49.932;11.592;2023-04-02T07:19:18;0.80;;;0.80;;
20567;SDS011;10442;49.932;11.592;2023-04-02T07:21:51;0.88;;;0.88;;
20567;SDS011;10442;49.932;11.592;2023-04-02T07:24:20;0.73;;;0.73;;
20567;SDS011;10442;49.932;11.592;2023-04-02T07:26:48;0.50;;;0.50;;
20567;SDS011;10442;49.932;11.592;2023-04-02T07:29:15;0.77;;;0.70;;
20567;SDS011;10442;49.932;11.592;2023-04-02T07:31:43;0.80;;;0.80;;
20567;SDS011;10442;49.932;11.592;2023-04-02T07:34:10;0.80;;;0.80;;
20567;SDS011;10442;49.932;11.592;2023-04-02T07:36:38;0.75;;;0.75;;
20567;SDS011;10442;49.932;11.592;2023-04-02T07:39:05;1.15;;;0.93;;
20567;SDS011;10442;49.932;11.592;2023-04-02T07:41:33;0.75;;;0.75;;
20567;SDS011;10442;49.932;11.592;2023-04-02T07:44:15;0.60;;;0.60;;
20567;SDS011;10442;49.932;11.592;2023-04-02T07:46:43;0.60;;;0.60;;
20567;SDS011;10442;49.932;11.592;2023-04-02T07:49:10;0.50;;;0.50;;
20567;SDS011;10442;49.932;11.592;2023-04-02T07:51:37;0.77;;;0.77;;
20567;SDS011;10442;49.932;11.592;2023-04-02T07:54:05;0.70;;;0.70;;
20567;SDS011;10442;49.932;11.592;2023-04-02T07:56:36;0.70;;;0.70;;
20567;SDS011;10442;49.932;11.592;2023-04-02T07:59:03;1.65;;;0.60;;
20567;SDS011;10442;49.932;11.592;2023-04-02T08:01:31;1.05;;;0.90;;
20567;SDS011;10442;49.932;11.592;2023-04-02T08:04:02;0.60;;;0.60;;
20567;SDS011;10442;49.932;11.592;2023-04-02T08:06:30;0.43;;;0.43;;
20567;SDS011;10442;49.932;11.592;2023-04-02T08:08:58;0.70;;;0.70;;
20567;SDS011;10442;49.932;11.592;2023-04-02T08:11:25;0.73;;;0.73;;
20567;SDS011;10442;49.932;11.592;2023-04-02T08:13:54;0.80;;;0.80;;
20567;SDS011;10442;49.932;11.592;2023-04-02T08:16:22;1.07;;;0.70;;
20567;SDS011;10442;49.932;11.592;2023-04-02T08:18:51;0.80;;;0.80;;
20567;SDS011;10442;49.932;11.592;2023-04-02T08:21:18;1.63;;;1.23;;
20567;SDS011;10442;49.932;11.592;2023-04-02T08:23:45;0.70;;;0.70;;
20567;SDS011;10442;49.932;11.592;2023-04-02T08:26:15;0.70;;;0.70;;
20567;SDS011;10442;49.932;11.592;2023-04-02T08:28:44;1.03;;;0.80;;
20567;SDS011;10442;49.932;11.592;2023-04-02T08:31:11;1.27;;;1.27;;
20567;SDS011;10442;49.932;11.592;2023-04-02T08:33:39;0.70;;;0.70;;
20567;SDS011;10442;49.932;11.592;2023-04-02T08:36:06;1.57;;;0.80;;
20567;SDS011;10442;49.932;11.592;2023-04-02T08:38:39;1.23;;;1.20;;
20567;SDS011;10442;49.932;11.592;2023-04-02T08:41:06;0.70;;;0.70;;
20567;SDS011;10442;49.932;11.592;2023-04-02T08:43:55;0.50;;;0.50;;
20567;SDS011;10442;49.932;11.592;2023-04-02T08:46:49;0.70;;;0.70;;
20567;SDS011;10442;49.932;11.592;2023-04-02T08:49:30;0.70;;;0.70;;
20567;SDS011;10442;49.932;11.592;2023-04-02T08:52:03;0.90;;;0.90;;
20567;SDS011;10442;49.932;11.592;2023-04-02T08:54:32;0.73;;;0.73;;
20567;SDS011;10442;49.932;11.592;2023-04-02T08:57:06;1.23;;;1.10;;
20567;SDS011;10442;49.932;11.592;2023-04-02T08:59:57;1.50;;;1.00;;
20567;SDS011;10442;49.932;11.592;2023-04-02T09:02:39;0.60;;;0.60;;
20567;SDS011;10442;49.932;11.592;2023-04-02T09:05:16;0.70;;;0.70;;
20567;SDS011;10442;49.932;11.592;2023-04-02T09:07:48;0.90;;;0.90;;
20567;SDS011;10442;49.932;11.592;2023-04-02T09:10:18;0.90;;;0.90;;
20567;SDS011;10442;49.932;11.592;2023-04-02T09:12:51;0.90;;;0.90;;
20567;SDS011;10442;49.932;11.592;2023-04-02T09:18:14;3.10;;;1.33;;
20567;SDS011;10442;49.932;11.592;2023-04-02T09:20:43;0.63;;;0.63;;
20567;SDS011;10442;49.932;11.592;2023-04-02T09:23:21;1.00;;;1.00;;
20567;SDS011;10442;49.932;11.592;2023-04-02T09:25:51;1.07;;;1.03;;
20567;SDS011;10442;49.932;11.592;2023-04-02T09:28:30;0.70;;;0.70;;
20567;SDS011;10442;49.932;11.592;2023-04-02T09:33:42;1.00;;;0.90;;
20567;SDS011;10442;49.932;11.592;2023-04-02T09:41:42;1.27;;;1.20;;
20567;SDS011;10442;49.932;11.592;2023-04-02T09:46:51;1.30;;;1.20;;
20567;SDS011;10442;49.932;11.592;2023-04-02T09:49:21;1.10;;;1.10;;
20567;SDS011;10442;49.932;11.592;2023-04-02T09:52:07;1.50;;;1.40;;
20567;SDS011;10442;49.932;11.592;2023-04-02T09:58:05;1.77;;;1.67;;
20567;SDS011;10442;49.932;11.592;2023-04-02T10:00:49;1.33;;;1.33;;
20567;SDS011;10442;49.932;11.592;2023-04-02T10:03:20;1.53;;;1.43;;
20567;SDS011;10442;49.932;11.592;2023-04-02T10:06:04;1.83;;;1.73;;
20567;SDS011;10442;49.932;11.592;2023-04-02T10:08:34;1.93;;;1.83;;
20567;SDS011;10442;49.932;11.592;2023-04-02T10:11:03;1.80;;;1.70;;
20567;SDS011;10442;49.932;11.592;2023-04-02T10:13:41;1.70;;;1.60;;
20567;SDS011;10442;49.932;11.592;2023-04-02T10:21:49;1.38;;;1.27;;
20567;SDS011;10442;49.932;11.592;2023-04-02T10:24:19;1.27;;;1.23;;
20567;SDS011;10442;49.932;11.592;2023-04-02T10:29:24;1.80;;;1.70;;
20567;SDS011;10442;49.932;11.592;2023-04-02T10:32:17;1.70;;;1.60;;
20567;SDS011;10442;49.932;11.592;2023-04-02T10:34:59;2.00;;;1.67;;
20567;SDS011;10442;49.932;11.592;2023-04-02T10:40:18;1.77;;;1.67;;
20567;SDS011;10442;49.932;11.592;2023-04-02T10:46:03;1.55;;;1.45;;
20567;SDS011;10442;49.932;11.592;2023-04-02T10:51:32;1.52;;;1.42;;
20567;SDS011;10442;49.932;11.592;2023-04-02T10:54:18;1.75;;;1.65;;
20567;SDS011;10442;49.932;11.592;2023-04-02T10:57:08;1.60;;;1.50;;
20567;SDS011;10442;49.932;11.592;2023-04-02T11:02:40;1.88;;;1.77;;
20567;SDS011;10442;49.932;11.592;2023-04-02T11:05:16;1.55;;;1.45;;
20567;SDS011;10442;49.932;11.592;2023-04-02T11:08:05;1.48;;;1.48;;
20567;SDS011;10442;49.932;11.592;2023-04-02T11:10:43;1.38;;;1.38;;
20567;SDS011;10442;49.932;11.592;2023-04-02T11:16:19;1.63;;;1.52;;
20567;SDS011;10442;49.932;11.592;2023-04-02T11:19:06;1.80;;;1.70;;
20567;SDS011;10442;49.932;11.592;2023-04-02T11:24:36;2.30;;;2.10;;
20567;SDS011;10442;49.932;11.592;2023-04-02T11:29:37;2.17;;;2.08;;
20567;SDS011;10442;49.932;11.592;2023-04-02T11:32:26;3.30;;;3.00;;
20567;SDS011;10442;49.932;11.592;2023-04-02T11:34:58;2.40;;;2.25;;
20567;SDS011;10442;49.932;11.592;2023-04-02T11:37:43;2.78;;;2.40;;
20567;SDS011;10442;49.932;11.592;2023-04-02T11:42:42;2.60;;;2.40;;
20567;SDS011;10442;49.932;11.592;2023-04-02T11:55:44;3.65;;;3.35;;
20567;SDS011;10442;49.932;11.592;2023-04-02T12:01:37;2.80;;;2.60;;
20567;SDS011;10442;49.932;11.592;2023-04-02T12:10:02;2.50;;;2.40;;
20567;SDS011;10442;49.932;11.592;2023-04-02T12:12:37;2.80;;;2.53;;
20567;SDS011;10442;49.932;11.592;2023-04-02T12:15:06;1.98;;;1.88;;
20567;SDS011;10442;49.932;11.592;2023-04-02T12:18:01;1.90;;;1.80;;
20567;SDS011;10442;49.932;11.592;2023-04-02T12:20:46;2.25;;;2.10;;
20567;SDS011;10442;49.932;11.592;2023-04-02T12:26:36;1.95;;;1.83;;
20567;SDS011;10442;49.932;11.592;2023-04-02T12:28:51;1.92;;;1.73;;
20567;SDS011;10442;49.932;11.592;2023-04-02T12:31:19;2.03;;;1.90;;
20567;SDS011;10442;49.932;11.592;2023-04-02T12:33:51;2.03;;;1.92;;
20567;SDS011;10442;49.932;11.592;2023-04-02T12:36:20;2.13;;;1.92;;
20567;SDS011;10442;49.932;11.592;2023-04-02T12:38:50;2.20;;;1.98;;
20567;SDS011;10442;49.932;11.592;2023-04-02T12:41:23;2.08;;;1.98;;
20567;SDS011;10442;49.932;11.592;2023-04-02T12:44:02;2.00;;;1.80;;
20567;SDS011;10442;49.932;11.592;2023-04-02T12:46:32;1.70;;;1.60;;
20567;SDS011;10442;49.932;11.592;2023-04-02T12:49:03;1.65;;;1.55;;
20567;SDS011;10442;49.932;11.592;2023-04-02T12:51:34;2.20;;;2.00;;
20567;SDS011;10442;49.932;11.592;2023-04-02T12:54:02;1.80;;;1.70;;
20567;SDS011;10442;49.932;11.592;2023-04-02T12:56:31;1.40;;;1.37;;
20567;SDS011;10442;49.932;11.592;2023-04-02T12:58:59;3.70;;;1.85;;
20567;SDS011;10442;49.932;11.592;2023-04-02T13:01:27;1.75;;;1.65;;
20567;SDS011;10442;49.932;11.592;2023-04-02T13:04:04;1.20;;;1.20;;
20567;SDS011;10442;49.932;11.592;2023-04-02T13:06:38;1.45;;;1.35;;
20567;SDS011;10442;49.932;11.592;2023-04-02T13:09:29;1.50;;;1.40;;
20567;SDS011;10442;49.932;11.592;2023-04-02T13:12:01;1.80;;;1.70;;
20567;SDS011;10442;49.932;11.592;2023-04-02T13:14:29;3.33;;;2.10;;
20567;SDS011;10442;49.932;11.592;2023-04-02T13:16:57;2.00;;;1.63;;
20567;SDS011;10442;49.932;11.592;2023-04-02T13:19:30;2.30;;;2.10;;
20567;SDS011;10442;49.932;11.592;2023-04-02T13:21:59;1.60;;;1.50;;
20567;SDS011;10442;49.932;11.592;2023-04-02T13:24:29;2.20;;;2.10;;
20567;SDS011;10442;49.932;11.592;2023-04-02T13:26:58;2.93;;;1.77;;
20567;SDS011;10442;49.932;11.592;2023-04-02T13:31:57;8.10;;;1.98;;
20567;SDS011;10442;49.932;11.592;2023-04-02T13:34:26;2.07;;;1.93;;
20567;SDS011;10442;49.932;11.592;2023-04-02T13:36:54;3.20;;;2.60;;
20567;SDS011;10442;49.932;11.592;2023-04-02T13:39:23;3.22;;;1.98;;
20567;SDS011;10442;49.932;11.592;2023-04-02T13:41:52;2.30;;;2.10;;
20567;SDS011;10442;49.932;11.592;2023-04-02T13:44:22;2.00;;;1.80;;
20567;SDS011;10442;49.932;11.592;2023-04-02T13:46:52;2.27;;;2.07;;
20567;SDS011;10442;49.932;11.592;2023-04-02T13:49:20;2.73;;;2.40;;
20567;SDS011;10442;49.932;11.592;2023-04-02T13:51:50;2.00;;;1.90;;
20567;SDS011;10442;49.932;11.592;2023-04-02T13:54:32;2.13;;;2.03;;
20567;SDS011;10442;49.932;11.592;2023-04-02T13:57:09;1.77;;;1.67;;
20567;SDS011;10442;49.932;11.592;2023-04-02T13:59:36;2.40;;;2.20;;
20567;SDS011;10442;49.932;11.592;2023-04-02T14:02:05;1.98;;;1.77;;
20567;SDS011;10442;49.932;11.592;2023-04-02T14:04:38;1.93;;;1.83;;
20567;SDS011;10442;49.932;11.592;2023-04-02T14:07:37;2.38;;;2.13;;
20567;SDS011;10442;49.932;11.592;2023-04-02T14:16:03;2.27;;;2.07;;
20567;SDS011;10442;49.932;11.592;2023-04-02T14:18:47;2.03;;;1.83;;
20567;SDS011;10442;49.932;11.592;2023-04-02T14:35:35;6.10;;;2.23;;
20567;SDS011;10442;49.932;11.592;2023-04-02T14:40:44;4.00;;;2.13;;
20567;SDS011;10442;49.932;11.592;2023-04-02T14:43:24;1.92;;;1.70;;
20567;SDS011;10442;49.932;11.592;2023-04-02T14:46:04;1.80;;;1.70;;
20567;SDS011;10442;49.932;11.592;2023-04-02T14:57:14;2.70;;;1.83;;
20567;SDS011;10442;49.932;11.592;2023-04-02T15:00:03;1.73;;;1.63;;
20567;SDS011;10442;49.932;11.592;2023-04-02T15:02:48;2.28;;;2.10;;
20567;SDS011;10442;49.932;11.592;2023-04-02T15:05:46;2.03;;;1.92;;
20567;SDS011;10442;49.932;11.592;2023-04-02T15:11:02;3.78;;;2.53;;
20567;SDS011;10442;49.932;11.592;2023-04-02T15:16:47;3.90;;;2.83;;
20567;SDS011;10442;49.932;11.592;2023-04-02T15:19:15;2.23;;;2.13;;
20567;SDS011;10442;49.932;11.592;2023-04-02T15:24:40;3.00;;;2.28;;
20567;SDS011;10442;49.932;11.592;2023-04-02T15:30:19;2.70;;;2.40;;
20567;SDS011;10442;49.932;11.592;2023-04-02T15:32:50;4.00;;;3.17;;
20567;SDS011;10442;49.932;11.592;2023-04-02T15:35:38;3.67;;;2.80;;
20567;SDS011;10442;49.932;11.592;2023-04-02T15:38:31;2.83;;;2.63;;
20567;SDS011;10442;49.932;11.592;2023-04-02T15:41:14;3.10;;;2.38;;
20567;SDS011;10442;49.932;11.592;2023-04-02T15:44:05;2.90;;;2.53;;
20567;SDS011;10442;49.932;11.592;2023-04-02T15:46:44;2.80;;;2.30;;
20567;SDS011;10442;49.932;11.592;2023-04-02T15:52:36;5.97;;;3.10;;
20567;SDS011;10442;49.932;11.592;2023-04-02T15:55:29;2.90;;;2.70;;
20567;SDS011;10442;49.932;11.592;2023-04-02T16:11:45;3.03;;;2.77;;
20567;SDS011;10442;49.932;11.592;2023-04-02T16:14:19;2.77;;;2.50;;
20567;SDS011;10442;49.932;11.592;2023-04-02T16:16:53;2.83;;;2.63;;
20567;SDS011;10442;49.932;11.592;2023-04-02T16:19:33;4.83;;;3.13;;
20567;SDS011;10442;49.932;11.592;2023-04-02T16:22:12;2.93;;;2.30;;
20567;SDS011;10442;49.932;11.592;2023-04-02T16:24:47;2.57;;;2.37;;
20567;SDS011;10442;49.932;11.592;2023-04-02T16:35:30;3.00;;;2.37;;
20567;SDS011;10442;49.932;11.592;2023-04-02T16:40:59;3.10;;;2.43;;
20567;SDS011;10442;49.932;11.592;2023-04-02T16:44:03;2.20;;;2.00;;
20567;SDS011;10442;49.932;11.592;2023-04-02T16:49:25;2.23;;;2.03;;
20567;SDS011;10442;49.932;11.592;2023-04-02T17:05:52;2.70;;;2.43;;
20567;SDS011;10442;49.932;11.592;2023-04-02T17:11:55;2.67;;;2.27;;
20567;SDS011;10442;49.932;11.592;2023-04-02T17:14:56;3.07;;;2.47;;
20567;SDS011;10442;49.932;11.592;2023-04-02T17:17:27;3.67;;;2.67;;
20567;SDS011;10442;49.932;11.592;2023-04-02T17:19:56;3.87;;;2.80;;
20567;SDS011;10442;49.932;11.592;2023-04-02T17:22:26;3.03;;;2.50;;
20567;SDS011;10442;49.932;11.592;2023-04-02T17:24:57;3.13;;;2.83;;
20567;SDS011;10442;49.932;11.592;2023-04-02T17:27:31;3.00;;;2.70;;
20567;SDS011;10442;49.932;11.592;2023-04-02T17:30:04;2.13;;;1.93;;
20567;SDS011;10442;49.932;11.592;2023-04-02T17:32:40;3.80;;;2.10;;
20567;SDS011;10442;49.932;11.592;2023-04-02T17:46:09;3.37;;;2.47;;
20567;SDS011;10442;49.932;11.592;2023-04-02T17:48:59;2.93;;;2.73;;
20567;SDS011;10442;49.932;11.592;2023-04-02T17:51:43;3.33;;;2.50;;
20567;SDS011;10442;49.932;11.592;2023-04-02T17:54:29;2.20;;;2.00;;
20567;SDS011;10442;49.932;11.592;2023-04-02T18:06:06;4.60;;;2.47;;
20567;SDS011;10442;49.932;11.592;2023-04-02T18:11:08;2.13;;;2.00;;
20567;SDS011;10442;49.932;11.592;2023-04-02T18:24:40;3.90;;;2.30;;
20567;SDS011;10442;49.932;11.592;2023-04-02T18:30:46;2.80;;;1.97;;
20567;SDS011;10442;49.932;11.592;2023-04-02T18:33:35;2.83;;;1.70;;
20567;SDS011;10442;49.932;11.592;2023-04-02T18:38:59;2.20;;;2.10;;
20567;SDS011;10442;49.932;11.592;2023-04-02T18:46:58;1.87;;;1.60;;
20567;SDS011;10442;49.932;11.592;2023-04-02T18:49:42;2.67;;;1.90;;
20567;SDS011;10442;49.932;11.592;2023-04-02T18:52:19;2.43;;;2.00;;
20567;SDS011;10442;49.932;11.592;2023-04-02T18:55:00;2.90;;;1.87;;
20567;SDS011;10442;49.932;11.592;2023-04-02T18:57:32;2.77;;;2.50;;
20567;SDS011;10442;49.932;11.592;2023-04-02T19:02:54;5.13;;;2.10;;
20567;SDS011;10442;49.932;11.592;2023-04-02T19:11:23;7.57;;;2.13;;
20567;SDS011;10442;49.932;11.592;2023-04-02T19:13:57;2.33;;;1.77;;
20567;SDS011;10442;49.932;11.592;2023-04-02T19:16:39;5.03;;;2.10;;
20567;SDS011;10442;49.932;11.592;2023-04-02T19:19:31;2.40;;;1.80;;
20567;SDS011;10442;49.932;11.592;2023-04-02T19:35:52;2.10;;;1.90;;
20567;SDS011;10442;49.932;11.592;2023-04-02T19:43:52;5.00;;;2.97;;
20567;SDS011;10442;49.932;11.592;2023-04-02T19:46:22;2.93;;;1.47;;
20567;SDS011;10442;49.932;11.592;2023-04-02T19:49:04;2.17;;;1.87;;
20567;SDS011;10442;49.932;11.592;2023-04-02T19:51:37;2.40;;;2.20;;
20567;SDS011;10442;49.932;11.592;2023-04-02T19:54:04;2.57;;;2.37;;
20567;SDS011;10442;49.932;11.592;2023-04-02T19:56:32;2.03;;;1.80;;
20567;SDS011;10442;49.932;11.592;2023-04-02T19:58:59;1.90;;;1.70;;
20567;SDS011;10442;49.932;11.592;2023-04-02T20:01:42;2.10;;;1.60;;
20567;SDS011;10442;49.932;11.592;2023-04-02T20:04:10;2.53;;;2.00;;
20567;SDS011;10442;49.932;11.592;2023-04-02T20:06:37;2.70;;;2.10;;
20567;SDS011;10442;49.932;11.592;2023-04-02T20:09:05;2.00;;;1.80;;
20567;SDS011;10442;49.932;11.592;2023-04-02T20:11:34;2.70;;;2.33;;
20567;SDS011;10442;49.932;11.592;2023-04-02T20:14:03;1.63;;;1.40;;
20567;SDS011;10442;49.932;11.592;2023-04-02T20:16:31;2.77;;;2.10;;
20567;SDS011;10442;49.932;11.592;2023-04-02T20:18:59;2.17;;;1.57;;
20567;SDS011;10442;49.932;11.592;2023-04-02T20:21:27;3.17;;;1.70;;
20567;SDS011;10442;49.932;11.592;2023-04-02T20:24:00;2.23;;;2.03;;
20567;SDS011;10442;49.932;11.592;2023-04-02T20:26:27;2.10;;;1.90;;
20567;SDS011;10442;49.932;11.592;2023-04-02T20:28:55;4.30;;;1.80;;
20567;SDS011;10442;49.932;11.592;2023-04-02T20:31:22;2.57;;;1.87;;